Time;durP1;ratioP1;P1;durP2;ratioP2;P2;SDS_P1;SDS_P2;PMS_P1;PMS_P2;Temp;Humidity;BMP_temperature;BMP_pressure;BME280_temperature;BME280_humidity;BME280_pressure;Samples;Min_cycle;Max_cycle;Signal;HPM_P1;HPM_P2
2023/12/25 00:01:32;;;;;;;0.40;0.40;;;10.60;99.90;;;;;;6280139;22;20182;-80
2023/12/25 00:03:59;;;;;;;0.40;0.40;;;10.40;99.90;;;;;;6282661;22;20223;-79
2023/12/25 00:06:26;;;;;;;0.40;0.40;;;10.40;99.90;;;;;;6280508;22;20438;-80
2023/12/25 00:08:53;;;;;;;0.40;0.40;;;10.40;99.90;;;;;;6279344;22;20175;-78
2023/12/25 00:11:21;;;;;;;0.40;0.40;;;10.70;99.90;;;;;;6252509;22;20185;-77
2023/12/25 00:13:50;;;;;;;0.40;0.40;;;10.70;99.90;;;;;;6279292;22;20182;-79
2023/12/25 00:16:17;;;;;;;0.40;0.40;;;10.50;99.90;;;;;;6278629;22;20270;-79
2023/12/25 00:18:45;;;;;;;0.40;0.40;;;10.60;99.90;;;;;;6279017;22;20183;-78
2023/12/25 00:21:12;;;;;;;0.40;0.40;;;10.70;99.90;;;;;;6279702;22;20179;-80
2023/12/25 00:23:40;;;;;;;0.40;0.40;;;10.80;99.90;;;;;;6279108;22;20233;-79
2023/12/25 00:26:08;;;;;;;0.40;0.40;;;10.90;99.90;;;;;;6279198;22;20179;-79
2023/12/25 00:28:36;;;;;;;0.40;0.40;;;10.90;99.90;;;;;;6280810;22;20242;-80
2023/12/25 00:31:04;;;;;;;0.40;0.40;;;10.90;99.90;;;;;;6279998;22;20495;-80
2023/12/25 00:33:31;;;;;;;0.40;0.40;;;10.90;99.90;;;;;;6280263;22;20209;-81
2023/12/25 00:35:58;;;;;;;0.40;0.40;;;10.90;99.90;;;;;;6282032;22;20225;-78
2023/12/25 00:38:25;;;;;;;0.40;0.40;;;10.70;99.90;;;;;;6281059;22;20261;-82
2023/12/25 00:40:52;;;;;;;0.73;0.73;;;10.90;99.90;;;;;;6280698;22;20502;-77
2023/12/25 00:43:19;;;;;;;0.40;0.40;;;10.80;99.90;;;;;;6283790;22;20222;-80
2023/12/25 00:45:57;;;;;;;0.40;0.40;;;10.90;99.90;;;;;;6295564;22;20183;-79
2023/12/25 00:48:24;;;;;;;0.40;0.40;;;10.90;99.90;;;;;;6264553;22;20171;-78
2023/12/25 00:50:51;;;;;;;0.40;0.40;;;10.80;99.90;;;;;;6280880;22;20175;-77
2023/12/25 00:53:18;;;;;;;0.40;0.40;;;10.90;99.90;;;;;;6280841;22;20390;-78
2023/12/25 00:55:47;;;;;;;0.40;0.40;;;10.80;99.90;;;;;;6280435;22;20267;-78
2023/12/25 00:58:14;;;;;;;0.40;0.40;;;10.90;99.90;;;;;;6253478;22;20175;-78
2023/12/25 01:00:41;;;;;;;0.50;0.50;;;10.90;99.90;;;;;;6279686;22;20455;-79
2023/12/25 01:03:08;;;;;;;0.40;0.40;;;10.80;99.90;;;;;;6253982;22;20182;-80
2023/12/25 01:05:36;;;;;;;0.40;0.40;;;11.00;99.90;;;;;;6280025;22;20179;-80
2023/12/25 01:08:03;;;;;;;0.40;0.40;;;11.00;99.90;;;;;;6278432;22;20187;-79
2023/12/25 01:10:31;;;;;;;0.40;0.40;;;11.00;99.90;;;;;;6278560;22;20178;-79
2023/12/25 01:12:57;;;;;;;0.40;0.40;;;10.90;99.90;;;;;;6278994;22;20186;-81
2023/12/25 01:15:25;;;;;;;0.50;0.50;;;10.80;99.90;;;;;;6279025;22;20700;-78
2023/12/25 01:17:52;;;;;;;0.40;0.40;;;10.80;99.90;;;;;;6279187;22;20190;-81
2023/12/25 01:20:20;;;;;;;0.50;0.50;;;10.80;99.90;;;;;;6278954;22;20205;-83
2023/12/25 01:22:46;;;;;;;0.40;0.40;;;11.00;99.90;;;;;;6279580;22;20527;-79
2023/12/25 01:25:14;;;;;;;0.40;0.40;;;11.00;99.90;;;;;;6279194;22;20286;-81
2023/12/25 01:27:41;;;;;;;0.40;0.40;;;10.90;99.90;;;;;;6252334;22;20510;-79
2023/12/25 01:30:11;;;;;;;0.40;0.40;;;10.90;99.90;;;;;;6279679;22;20163;-81
2023/12/25 01:32:39;;;;;;;0.40;0.40;;;11.00;99.90;;;;;;6252677;22;20186;-82
2023/12/25 01:35:08;;;;;;;0.40;0.40;;;10.90;99.90;;;;;;6279501;22;20170;-79
2023/12/25 01:37:35;;;;;;;0.40;0.40;;;10.90;99.90;;;;;;6278379;22;20444;-78
2023/12/25 01:40:03;;;;;;;0.40;0.40;;;10.90;99.90;;;;;;6279150;22;20242;-80
2023/12/25 01:42:29;;;;;;;0.40;0.40;;;10.90;99.90;;;;;;6278313;22;20221;-80
2023/12/25 01:44:58;;;;;;;0.40;0.40;;;11.00;99.90;;;;;;6278801;22;20230;-79
2023/12/25 01:47:25;;;;;;;0.40;0.40;;;11.00;99.90;;;;;;6251569;22;20178;-78
2023/12/25 01:49:53;;;;;;;0.40;0.40;;;10.80;99.90;;;;;;6278374;22;20700;-78
2023/12/25 01:52:20;;;;;;;0.40;0.40;;;10.80;99.90;;;;;;6279081;22;20258;-80
2023/12/25 01:54:48;;;;;;;0.40;0.40;;;10.80;99.90;;;;;;6278296;22;20519;-80
2023/12/25 01:57:15;;;;;;;0.40;0.40;;;10.80;99.90;;;;;;6278017;22;20655;-77
2023/12/25 01:59:42;;;;;;;0.40;0.40;;;10.80;99.90;;;;;;6251211;22;20244;-81
2023/12/25 02:02:12;;;;;;;0.40;0.40;;;10.70;99.90;;;;;;6279074;22;20182;-81
2023/12/25 02:04:40;;;;;;;6.53;1.58;;;10.90;99.90;;;;;;6278172;22;20195;-78
2023/12/25 02:07:10;;;;;;;0.40;0.40;;;10.90;99.90;;;;;;6278588;22;20206;-81
2023/12/25 02:09:38;;;;;;;0.40;0.40;;;10.90;99.90;;;;;;6279730;22;20186;-82
2023/12/25 02:12:06;;;;;;;0.40;0.40;;;10.90;99.90;;;;;;6279897;22;20181;-80
2023/12/25 02:14:33;;;;;;;0.40;0.40;;;11.00;99.90;;;;;;6280332;22;20526;-82
2023/12/25 02:17:03;;;;;;;0.40;0.40;;;11.10;99.90;;;;;;6281548;22;20229;-81
2023/12/25 02:19:39;;;;;;;0.40;0.40;;;11.10;99.90;;;;;;6279763;22;20238;-81
2023/12/25 02:22:07;;;;;;;0.40;0.40;;;11.20;99.90;;;;;;6280113;22;20163;-80
2023/12/25 02:24:37;;;;;;;0.40;0.40;;;11.10;99.90;;;;;;6252050;22;20274;-79
2023/12/25 02:27:05;;;;;;;0.40;0.40;;;11.00;99.90;;;;;;6279549;22;20226;-83
2023/12/25 02:29:33;;;;;;;0.40;0.40;;;11.10;99.90;;;;;;6280767;22;20198;-80
2023/12/25 02:32:02;;;;;;;0.40;0.40;;;11.00;99.90;;;;;;6256578;22;20182;-81
2023/12/25 02:34:28;;;;;;;0.40;0.40;;;11.00;99.90;;;;;;6285060;22;20362;-79
2023/12/25 02:36:56;;;;;;;0.40;0.40;;;11.00;99.90;;;;;;6284410;22;20186;-80
2023/12/25 02:39:23;;;;;;;0.50;0.50;;;11.10;99.90;;;;;;6284485;22;20241;-78
2023/12/25 02:41:50;;;;;;;0.40;0.40;;;11.00;99.90;;;;;;6283526;22;20213;-80
2023/12/25 02:44:20;;;;;;;0.40;0.40;;;11.00;99.90;;;;;;6282051;22;20225;-79
2023/12/25 02:46:47;;;;;;;0.40;0.40;;;11.00;99.90;;;;;;6280574;22;20228;-79
2023/12/25 02:49:14;;;;;;;0.40;0.40;;;11.00;99.90;;;;;;6281163;22;20175;-81
2023/12/25 02:51:42;;;;;;;0.40;0.40;;;10.90;99.90;;;;;;6281499;22;20179;-80
2023/12/25 02:54:08;;;;;;;0.40;0.40;;;11.00;99.90;;;;;;6281149;22;20215;-84
2023/12/25 02:56:36;;;;;;;0.40;0.40;;;10.90;99.90;;;;;;6280969;22;20175;-83
2023/12/25 02:59:03;;;;;;;0.40;0.40;;;10.90;99.90;;;;;;6254310;22;20179;-79
2023/12/25 03:01:30;;;;;;;0.40;0.40;;;11.10;99.90;;;;;;6282065;22;20262;-84
2023/12/25 03:03:57;;;;;;;0.40;0.40;;;11.10;99.90;;;;;;6254361;22;20199;-80
2023/12/25 03:06:24;;;;;;;0.40;0.40;;;11.10;99.90;;;;;;6281561;22;20233;-80
2023/12/25 03:08:52;;;;;;;0.40;0.40;;;11.00;99.90;;;;;;6282391;22;20179;-79
2023/12/25 03:11:18;;;;;;;0.93;0.93;;;10.90;99.90;;;;;;6259172;22;20441;-81
2023/12/25 03:13:45;;;;;;;0.40;0.40;;;10.90;99.90;;;;;;6302226;22;20190;-81
2023/12/25 03:16:13;;;;;;;0.40;0.40;;;10.90;99.90;;;;;;6299458;22;20202;-79
2023/12/25 03:18:39;;;;;;;0.40;0.40;;;11.00;99.90;;;;;;6295362;22;20198;-78
2023/12/25 03:21:08;;;;;;;0.40;0.40;;;11.00;99.90;;;;;;6302009;22;20170;-81
2023/12/25 03:23:34;;;;;;;0.40;0.40;;;10.90;99.90;;;;;;6297034;22;20226;-80
2023/12/25 03:26:02;;;;;;;0.40;0.40;;;10.80;99.90;;;;;;6302848;22;20217;-80
2023/12/25 03:28:29;;;;;;;0.40;0.40;;;10.70;99.90;;;;;;6265594;22;20234;-81
2023/12/25 03:30:57;;;;;;;0.40;0.40;;;10.70;99.90;;;;;;6282230;22;20611;-81
2023/12/25 03:33:28;;;;;;;0.40;0.40;;;10.70;99.90;;;;;;6282220;22;20221;-81
2023/12/25 03:35:55;;;;;;;0.40;0.40;;;10.60;99.90;;;;;;6284361;22;20364;-80
2023/12/25 03:38:23;;;;;;;0.40;0.40;;;10.60;99.90;;;;;;6282184;22;20460;-80
2023/12/25 03:40:50;;;;;;;0.40;0.40;;;10.60;99.90;;;;;;6282480;22;20185;-81
2023/12/25 03:43:17;;;;;;;0.40;0.40;;;10.50;99.90;;;;;;6281531;22;20190;-80
2023/12/25 03:45:44;;;;;;;0.40;0.40;;;10.50;99.90;;;;;;6280338;22;20226;-79
2023/12/25 03:48:11;;;;;;;0.40;0.40;;;10.30;99.90;;;;;;6280278;22;20522;-80
2023/12/25 03:50:38;;;;;;;0.40;0.40;;;10.30;99.90;;;;;;6280126;22;20182;-80
2023/12/25 03:53:05;;;;;;;0.47;0.47;;;10.20;99.90;;;;;;6280063;22;20171;-79
2023/12/25 03:55:32;;;;;;;0.40;0.40;;;10.20;99.90;;;;;;6280063;22;20507;-79
2023/12/25 03:57:59;;;;;;;0.45;0.45;;;10.10;99.90;;;;;;6280714;22;20197;-80
2023/12/25 04:00:26;;;;;;;0.40;0.40;;;10.00;99.90;;;;;;6280074;22;20214;-80
2023/12/25 04:02:53;;;;;;;0.40;0.40;;;10.00;99.90;;;;;;6279880;22;20175;-80
2023/12/25 04:05:20;;;;;;;0.40;0.40;;;10.00;99.90;;;;;;6252692;22;20542;-80
2023/12/25 04:07:48;;;;;;;0.40;0.40;;;10.00;99.90;;;;;;6253739;22;20171;-80
2023/12/25 04:10:16;;;;;;;0.40;0.40;;;10.00;99.90;;;;;;6279633;22;20662;-80
2023/12/25 04:12:43;;;;;;;0.40;0.40;;;10.10;99.90;;;;;;6253404;22;20179;-82
2023/12/25 04:15:10;;;;;;;0.40;0.40;;;10.20;99.90;;;;;;6281227;22;20175;-84
2023/12/25 04:17:37;;;;;;;0.40;0.40;;;10.20;99.90;;;;;;6281158;22;20380;-82
2023/12/25 04:20:05;;;;;;;0.40;0.40;;;10.30;99.90;;;;;;6280522;22;20766;-81
2023/12/25 04:22:33;;;;;;;0.40;0.40;;;10.20;99.90;;;;;;6254565;22;20483;-83
2023/12/25 04:25:01;;;;;;;1.83;1.80;;;10.30;99.90;;;;;;6281400;22;20191;-85
2023/12/25 04:27:30;;;;;;;0.40;0.40;;;10.40;99.90;;;;;;6255545;22;20230;-84
2023/12/25 04:29:59;;;;;;;0.40;0.40;;;10.60;99.90;;;;;;6282090;22;20182;-85
2023/12/25 04:32:27;;;;;;;0.40;0.40;;;10.70;99.90;;;;;;6281957;22;20549;-86
2023/12/25 04:34:55;;;;;;;0.40;0.40;;;10.70;99.90;;;;;;6281407;22;20187;-84
2023/12/25 04:37:22;;;;;;;0.40;0.40;;;10.60;99.90;;;;;;6280906;22;20221;-83
2023/12/25 04:39:52;;;;;;;0.40;0.40;;;10.60;99.90;;;;;;6255233;22;20183;-85
2023/12/25 04:42:20;;;;;;;0.40;0.40;;;10.80;99.90;;;;;;6280533;22;20195;-83
2023/12/25 04:44:47;;;;;;;0.40;0.40;;;10.70;99.90;;;;;;6279712;22;20202;-81
2023/12/25 04:47:14;;;;;;;0.40;0.40;;;10.60;99.90;;;;;;6279429;22;20209;-80
2023/12/25 04:49:44;;;;;;;0.40;0.40;;;10.70;99.90;;;;;;6279423;22;20186;-82
2023/12/25 04:52:24;;;;;;;0.40;0.40;;;10.70;99.90;;;;;;6281220;22;20175;-80
2023/12/25 04:54:51;;;;;;;0.40;0.40;;;10.70;99.90;;;;;;6253804;22;20183;-81
2023/12/25 04:57:18;;;;;;;0.40;0.40;;;10.80;99.90;;;;;;6280497;22;20633;-82
2023/12/25 04:59:46;;;;;;;0.40;0.40;;;10.80;99.90;;;;;;6281130;22;20182;-82
2023/12/25 05:02:15;;;;;;;0.40;0.40;;;10.80;99.90;;;;;;6287480;22;20222;-81
2023/12/25 05:04:42;;;;;;;0.50;0.50;;;11.00;99.90;;;;;;6298320;22;20385;-80
2023/12/25 05:07:27;;;;;;;0.60;0.60;;;11.00;99.90;;;;;;6299234;22;20183;-79
2023/12/25 05:09:55;;;;;;;0.50;0.50;;;11.00;99.90;;;;;;6272387;22;20172;-80
2023/12/25 05:12:23;;;;;;;0.40;0.40;;;11.00;99.90;;;;;;6298973;22;20218;-81
2023/12/25 05:14:58;;;;;;;0.40;0.40;;;10.80;99.90;;;;;;6285553;22;20178;-82
2023/12/25 05:17:25;;;;;;;0.40;0.40;;;10.50;99.90;;;;;;6280332;22;20182;-79
2023/12/25 05:19:52;;;;;;;0.50;0.50;;;10.40;99.90;;;;;;6254048;22;20182;-77
2023/12/25 05:22:19;;;;;;;0.50;0.50;;;10.30;99.90;;;;;;6280412;22;20175;-84
2023/12/25 05:24:47;;;;;;;0.50;0.50;;;10.10;99.90;;;;;;6280912;22;20602;-81
2023/12/25 05:27:15;;;;;;;0.47;0.47;;;10.00;99.90;;;;;;6279033;22;20207;-79
2023/12/25 05:29:43;;;;;;;0.50;0.50;;;10.10;99.90;;;;;;6280767;22;20178;-82
2023/12/25 05:32:11;;;;;;;0.40;0.40;;;10.10;99.90;;;;;;6280249;22;20178;-80
2023/12/25 05:34:38;;;;;;;0.40;0.40;;;10.30;99.90;;;;;;6278941;22;20206;-84
2023/12/25 05:37:05;;;;;;;0.40;0.40;;;10.10;99.90;;;;;;6277534;22;20198;-80
2023/12/25 05:39:32;;;;;;;0.40;0.40;;;10.10;99.90;;;;;;6284353;22;20179;-81
2023/12/25 05:41:59;;;;;;;0.40;0.40;;;10.00;99.90;;;;;;6301988;22;20186;-81
2023/12/25 05:44:26;;;;;;;0.40;0.40;;;10.00;99.90;;;;;;6296291;22;20191;-82
2023/12/25 05:46:57;;;;;;;0.40;0.40;;;9.80;99.90;;;;;;6289181;22;20170;-80
2023/12/25 05:49:25;;;;;;;0.70;0.70;;;9.80;99.90;;;;;;6283483;22;20163;-83
2023/12/25 05:51:53;;;;;;;0.90;0.90;;;9.80;99.90;;;;;;6280495;22;20179;-84
2023/12/25 05:54:21;;;;;;;0.40;0.40;;;10.00;99.90;;;;;;6280388;22;20190;-81
2023/12/25 05:56:49;;;;;;;0.40;0.40;;;10.10;99.90;;;;;;6279485;22;20179;-78
2023/12/25 05:59:16;;;;;;;0.40;0.40;;;10.00;99.90;;;;;;6278875;22;20175;-80
2023/12/25 06:01:45;;;;;;;0.40;0.40;;;9.90;99.90;;;;;;6281713;22;20175;-82
2023/12/25 06:04:12;;;;;;;0.40;0.40;;;10.00;99.90;;;;;;6281203;22;20398;-82
2023/12/25 06:06:39;;;;;;;0.40;0.40;;;10.10;99.90;;;;;;6254085;22;20684;-82
2023/12/25 06:09:10;;;;;;;0.40;0.40;;;10.00;99.90;;;;;;6280866;22;20176;-82
2023/12/25 06:11:37;;;;;;;0.40;0.40;;;9.90;99.90;;;;;;6254954;22;20186;-83
2023/12/25 06:14:07;;;;;;;0.40;0.40;;;10.00;99.90;;;;;;6282987;22;20230;-79
2023/12/25 06:16:35;;;;;;;0.40;0.40;;;10.20;99.90;;;;;;6282713;22;20178;-81
2023/12/25 06:19:03;;;;;;;0.40;0.40;;;10.40;99.90;;;;;;6282133;22;20498;-81
2023/12/25 06:21:30;;;;;;;0.50;0.50;;;10.50;99.90;;;;;;6282833;22;20280;-83
2023/12/25 06:23:58;;;;;;;0.40;0.40;;;10.50;99.90;;;;;;6282380;22;20195;-84
2023/12/25 06:26:25;;;;;;;0.40;0.40;;;10.50;99.90;;;;;;6281328;22;20225;-84
2023/12/25 06:28:53;;;;;;;0.40;0.40;;;10.50;99.90;;;;;;6283184;22;20255;-81
2023/12/25 06:31:20;;;;;;;0.40;0.40;;;10.40;99.90;;;;;;6282389;22;20222;-82
2023/12/25 06:33:48;;;;;;;0.40;0.40;;;10.30;99.90;;;;;;6283785;22;20235;-81
2023/12/25 06:36:15;;;;;;;0.40;0.40;;;10.30;99.90;;;;;;6280558;22;20193;-81
2023/12/25 06:38:42;;;;;;;0.40;0.40;;;10.30;99.90;;;;;;6254850;22;20183;-81
2023/12/25 06:41:11;;;;;;;0.40;0.40;;;10.20;99.90;;;;;;6282723;22;20238;-80
2023/12/25 06:43:38;;;;;;;0.40;0.40;;;10.10;99.90;;;;;;6282885;22;20210;-81
2023/12/25 06:46:06;;;;;;;0.40;0.40;;;10.20;99.90;;;;;;6281708;22;20198;-82
2023/12/25 06:48:34;;;;;;;0.40;0.40;;;10.00;99.90;;;;;;6281462;22;20179;-82
2023/12/25 06:51:01;;;;;;;0.40;0.40;;;10.10;99.90;;;;;;6281464;22;20179;-80
2023/12/25 06:53:30;;;;;;;0.40;0.40;;;10.30;99.90;;;;;;6282028;22;20179;-82
2023/12/25 06:55:58;;;;;;;0.40;0.40;;;10.40;99.90;;;;;;6280186;22;20586;-82
2023/12/25 06:58:27;;;;;;;0.40;0.40;;;10.50;99.90;;;;;;6279619;22;20205;-82
2023/12/25 07:00:55;;;;;;;0.40;0.40;;;10.30;99.90;;;;;;6279618;22;20183;-86
2023/12/25 07:03:21;;;;;;;0.40;0.40;;;10.30;99.90;;;;;;6280954;22;20179;-79
2023/12/25 07:05:49;;;;;;;0.40;0.40;;;10.20;99.90;;;;;;6279845;22;20241;-80
2023/12/25 07:08:20;;;;;;;0.40;0.40;;;10.20;99.90;;;;;;6281140;22;20398;-80
2023/12/25 07:10:47;;;;;;;0.40;0.40;;;10.20;99.90;;;;;;6254415;22;20179;-78
2023/12/25 07:13:15;;;;;;;0.40;0.40;;;10.20;99.90;;;;;;6280476;22;20428;-80
2023/12/25 07:15:42;;;;;;;0.50;0.50;;;10.20;99.90;;;;;;6280495;22;20182;-80
2023/12/25 07:18:10;;;;;;;0.40;0.40;;;10.30;99.90;;;;;;6280863;22;20202;-80
2023/12/25 07:20:37;;;;;;;1.65;1.55;;;10.20;99.90;;;;;;6282689;22;20383;-80
2023/12/25 07:23:04;;;;;;;0.40;0.40;;;10.30;99.90;;;;;;6281841;22;20182;-79
2023/12/25 07:25:31;;;;;;;0.40;0.40;;;10.40;99.90;;;;;;6281091;22;20395;-79
2023/12/25 07:27:58;;;;;;;0.40;0.40;;;10.30;99.90;;;;;;6280871;22;20589;-80
2023/12/25 07:30:25;;;;;;;0.40;0.40;;;10.30;99.90;;;;;;6281338;22;20182;-82
2023/12/25 07:32:55;;;;;;;0.40;0.40;;;10.20;99.90;;;;;;6282555;22;20613;-84
2023/12/25 07:35:23;;;;;;;0.40;0.40;;;10.30;99.90;;;;;;6282479;22;20182;-82
2023/12/25 07:37:50;;;;;;;0.40;0.40;;;10.20;99.90;;;;;;6281852;22;20191;-83
2023/12/25 07:40:18;;;;;;;0.50;0.50;;;10.20;99.90;;;;;;6280983;22;20187;-82
2023/12/25 07:42:45;;;;;;;0.40;0.40;;;10.20;99.90;;;;;;6253245;22;20238;-82
2023/12/25 07:45:12;;;;;;;0.40;0.40;;;10.30;99.90;;;;;;6280345;22;20598;-81
2023/12/25 07:47:39;;;;;;;1.05;1.05;;;10.30;99.90;;;;;;6279786;22;20182;-79
2023/12/25 07:50:08;;;;;;;0.40;0.40;;;10.30;99.90;;;;;;6280897;22;20178;-80
2023/12/25 07:52:35;;;;;;;0.40;0.40;;;10.30;99.90;;;;;;6281506;22;20210;-79
2023/12/25 07:55:01;;;;;;;0.40;0.40;;;10.40;99.90;;;;;;6288133;22;20231;-80
2023/12/25 07:57:30;;;;;;;0.40;0.40;;;10.40;99.90;;;;;;6295893;22;20170;-82
2023/12/25 07:59:57;;;;;;;0.40;0.40;;;10.40;99.90;;;;;;6296627;22;20178;-81
2023/12/25 08:02:24;;;;;;;0.40;0.40;;;10.50;99.90;;;;;;6292714;22;20434;-83
2023/12/25 08:04:51;;;;;;;0.40;0.40;;;10.50;99.90;;;;;;6297948;22;20178;-84
2023/12/25 08:07:18;;;;;;;0.40;0.40;;;10.50;99.90;;;;;;6271072;22;20187;-78
2023/12/25 08:09:45;;;;;;;0.40;0.40;;;10.50;99.90;;;;;;6276666;22;20162;-79
2023/12/25 08:12:12;;;;;;;0.40;0.40;;;10.50;99.90;;;;;;6293050;22;20209;-80
2023/12/25 08:14:40;;;;;;;0.40;0.40;;;10.40;99.90;;;;;;6284731;22;20206;-83
2023/12/25 08:17:07;;;;;;;0.40;0.40;;;10.40;99.90;;;;;;6282967;22;20179;-82
2023/12/25 08:19:34;;;;;;;0.40;0.40;;;10.40;99.90;;;;;;6282027;22;20242;-82
2023/12/25 08:22:03;;;;;;;0.40;0.40;;;10.40;99.90;;;;;;6282055;22;20356;-81
2023/12/25 08:24:30;;;;;;;0.40;0.40;;;10.40;99.90;;;;;;6254614;22;20185;-81
2023/12/25 08:26:56;;;;;;;0.40;0.40;;;10.40;99.90;;;;;;6281450;22;20247;-80
2023/12/25 08:29:24;;;;;;;0.40;0.40;;;10.40;99.90;;;;;;6282489;22;20179;-82
2023/12/25 08:31:51;;;;;;;0.40;0.40;;;10.50;99.90;;;;;;6282048;22;20181;-82
2023/12/25 08:34:18;;;;;;;0.40;0.40;;;10.50;99.90;;;;;;6284314;22;20167;-82
2023/12/25 08:36:46;;;;;;;0.40;0.40;;;10.50;99.90;;;;;;6256863;22;20641;-84
2023/12/25 08:39:13;;;;;;;0.40;0.40;;;10.50;99.90;;;;;;6258468;22;20189;-83
2023/12/25 08:41:40;;;;;;;0.40;0.40;;;10.30;99.90;;;;;;6283808;22;20186;-82
2023/12/25 08:44:08;;;;;;;0.40;0.40;;;10.10;99.90;;;;;;6281354;22;20187;-81
2023/12/25 08:46:35;;;;;;;0.40;0.40;;;10.00;99.90;;;;;;6254859;22;20213;-82
2023/12/25 08:49:05;;;;;;;0.50;0.50;;;9.90;99.90;;;;;;6281382;22;20178;-83
2023/12/25 08:51:32;;;;;;;0.50;0.50;;;9.80;99.90;;;;;;6281642;22;20178;-83
2023/12/25 08:53:59;;;;;;;0.40;0.40;;;9.80;99.90;;;;;;6254367;22;20238;-81
2023/12/25 08:56:27;;;;;;;0.40;0.40;;;9.70;99.90;;;;;;6255321;22;20202;-80
2023/12/25 08:58:54;;;;;;;0.73;0.73;;;9.70;99.90;;;;;;6281373;22;20274;-81
2023/12/25 09:01:25;;;;;;;0.40;0.40;;;9.70;99.90;;;;;;6281088;22;20217;-80
2023/12/25 09:03:52;;;;;;;0.40;0.40;;;9.80;99.90;;;;;;6253929;22;20510;-80
2023/12/25 09:06:19;;;;;;;0.40;0.40;;;9.90;99.90;;;;;;6253818;22;20458;-80
2023/12/25 09:08:48;;;;;;;0.40;0.40;;;9.90;99.90;;;;;;6253048;22;20186;-81
2023/12/25 09:11:17;;;;;;;9.48;1.67;;;9.80;99.90;;;;;;6255077;22;20758;-83
2023/12/25 09:13:45;;;;;;;1.15;1.15;;;9.80;99.90;;;;;;6280316;22;20626;-80
2023/12/25 09:16:12;;;;;;;0.40;0.40;;;9.80;99.90;;;;;;6280054;22;20537;-81
2023/12/25 09:18:38;;;;;;;0.30;0.30;;;9.80;99.90;;;;;;6279633;22;20242;-82
2023/12/25 09:21:05;;;;;;;0.40;0.40;;;9.80;99.90;;;;;;6279455;22;20163;-81
2023/12/25 09:23:34;;;;;;;0.30;0.30;;;9.70;99.90;;;;;;6279604;22;20631;-81
2023/12/25 09:26:04;;;;;;;0.38;0.38;;;9.70;99.90;;;;;;6279230;22;20191;-81
2023/12/25 09:28:31;;;;;;;0.40;0.40;;;9.70;99.90;;;;;;6279357;22;20194;-82
2023/12/25 09:30:59;;;;;;;0.40;0.40;;;9.70;99.90;;;;;;6249489;22;20178;-79
2023/12/25 09:33:26;;;;;;;0.40;0.40;;;9.70;99.90;;;;;;6278824;22;20171;-83
2023/12/25 09:35:53;;;;;;;0.40;0.40;;;9.70;99.90;;;;;;6252474;22;20688;-81
2023/12/25 09:38:20;;;;;;;0.40;0.40;;;9.80;99.90;;;;;;6281763;22;20179;-82
2023/12/25 09:40:47;;;;;;;0.40;0.40;;;9.80;99.90;;;;;;6280161;22;20190;-84
2023/12/25 09:43:15;;;;;;;1.23;1.23;;;9.80;99.90;;;;;;6279886;22;20213;-80
2023/12/25 09:45:43;;;;;;;0.40;0.40;;;9.80;99.90;;;;;;6281062;22;20230;-81
2023/12/25 09:48:10;;;;;;;0.40;0.40;;;10.00;99.90;;;;;;6280684;22;20171;-79
2023/12/25 09:50:39;;;;;;;1.42;1.33;;;10.10;99.90;;;;;;6281695;22;20200;-82
2023/12/25 09:53:06;;;;;;;0.38;0.38;;;10.10;99.90;;;;;;6281227;22;20414;-83
2023/12/25 09:55:33;;;;;;;0.40;0.40;;;10.10;99.90;;;;;;6280635;22;20178;-80
2023/12/25 09:58:06;;;;;;;0.40;0.40;;;10.10;99.90;;;;;;6280471;22;20199;-80
2023/12/25 10:00:33;;;;;;;0.40;0.40;;;10.20;99.90;;;;;;6281648;22;20190;-81
2023/12/25 10:03:03;;;;;;;0.40;0.40;;;10.20;99.90;;;;;;6280330;22;20179;-81
2023/12/25 10:05:31;;;;;;;0.40;0.40;;;10.30;99.90;;;;;;6281057;22;20585;-79
2023/12/25 10:07:57;;;;;;;0.98;0.98;;;10.30;99.90;;;;;;6280532;22;20190;-81
2023/12/25 10:10:31;;;;;;;0.52;0.52;;;10.30;99.90;;;;;;6279372;22;20179;-80
2023/12/25 10:13:01;;;;;;;0.50;0.50;;;10.20;99.90;;;;;;6252098;22;20158;-80
2023/12/25 10:15:28;;;;;;;0.30;0.30;;;10.30;99.90;;;;;;6281328;22;20210;-81
2023/12/25 10:18:05;;;;;;;0.40;0.40;;;10.30;99.90;;;;;;6280110;22;20514;-81
2023/12/25 10:20:33;;;;;;;0.40;0.40;;;10.30;99.90;;;;;;6277559;22;20178;-82
2023/12/25 10:23:08;;;;;;;0.30;0.30;;;10.30;99.90;;;;;;6281681;22;20217;-81
2023/12/25 10:25:48;;;;;;;0.40;0.40;;;10.30;99.90;;;;;;6278292;22;20581;-83
2023/12/25 10:28:15;;;;;;;1.05;1.05;;;10.30;99.90;;;;;;6279767;22;20182;-78
2023/12/25 10:30:43;;;;;;;0.40;0.40;;;10.30;99.90;;;;;;6254337;22;20207;-81
2023/12/25 10:33:14;;;;;;;0.40;0.40;;;10.30;99.90;;;;;;6282599;22;20199;-80
2023/12/25 10:35:41;;;;;;;0.32;0.32;;;10.40;99.90;;;;;;6289045;22;20159;-79
2023/12/25 10:38:21;;;;;;;0.40;0.40;;;10.50;99.90;;;;;;6301393;22;20190;-82
2023/12/25 10:40:48;;;;;;;1.88;1.05;;;10.50;99.90;;;;;;6290915;22;20246;-80
2023/12/25 10:43:16;;;;;;;0.40;0.40;;;10.60;99.90;;;;;;6283887;22;20217;-82
2023/12/25 10:45:45;;;;;;;0.40;0.40;;;10.60;99.90;;;;;;6284717;22;20179;-82
2023/12/25 10:48:13;;;;;;;0.40;0.40;;;10.70;99.90;;;;;;6287176;22;20203;-81
2023/12/25 10:50:44;;;;;;;0.40;0.40;;;10.70;99.90;;;;;;6259716;22;20171;-83
2023/12/25 10:53:16;;;;;;;0.40;0.40;;;10.80;99.90;;;;;;6258014;22;20422;-79
2023/12/25 10:55:46;;;;;;;0.40;0.40;;;10.80;99.90;;;;;;6282566;22;20230;-81
2023/12/25 10:58:16;;;;;;;0.70;0.70;;;10.90;99.90;;;;;;6281230;22;20179;-80
2023/12/25 11:00:47;;;;;;;0.40;0.40;;;10.90;99.90;;;;;;6284831;22;20171;-85
2023/12/25 11:03:18;;;;;;;0.40;0.40;;;10.90;99.90;;;;;;6283703;22;20177;-81
2023/12/25 11:05:51;;;;;;;0.50;0.50;;;10.90;99.90;;;;;;6255661;22;20160;-82
2023/12/25 11:08:20;;;;;;;0.40;0.40;;;11.00;99.90;;;;;;6254896;22;20163;-82
2023/12/25 11:11:02;;;;;;;0.98;0.98;;;11.10;99.90;;;;;;6281640;22;20174;-82
2023/12/25 11:13:32;;;;;;;0.40;0.40;;;11.10;99.90;;;;;;6281012;22;20167;-84
2023/12/25 11:15:59;;;;;;;0.40;0.40;;;11.10;99.90;;;;;;6279788;22;20502;-81
2023/12/25 11:18:28;;;;;;;0.40;0.40;;;11.00;99.90;;;;;;6279165;22;20201;-83
2023/12/25 11:21:09;;;;;;;0.40;0.40;;;11.10;99.90;;;;;;6281139;22;20367;-80
2023/12/25 11:23:38;;;;;;;0.40;0.40;;;11.20;99.90;;;;;;6281242;22;20183;-82
2023/12/25 11:26:09;;;;;;;0.40;0.40;;;11.20;99.90;;;;;;6280994;22;20557;-81
2023/12/25 11:28:41;;;;;;;0.40;0.40;;;11.10;99.90;;;;;;6281980;22;20178;-83
2023/12/25 11:31:13;;;;;;;0.40;0.40;;;11.10;99.90;;;;;;6282863;22;20167;-82
2023/12/25 11:33:45;;;;;;;0.45;0.45;;;10.90;99.90;;;;;;6278468;22;20167;-81
2023/12/25 11:36:17;;;;;;;0.40;0.40;;;10.90;99.90;;;;;;6254073;22;20185;-82
2023/12/25 11:38:54;;;;;;;0.40;0.40;;;10.80;99.90;;;;;;6280204;22;20206;-82
2023/12/25 11:41:23;;;;;;;0.95;0.95;;;10.70;99.90;;;;;;6281157;22;20178;-81
2023/12/25 11:43:51;;;;;;;0.95;0.95;;;10.60;99.90;;;;;;6255421;22;20432;-80
2023/12/25 11:46:21;;;;;;;0.85;0.85;;;10.60;99.90;;;;;;6280820;22;20230;-82
2023/12/25 11:49:02;;;;;;;0.60;0.60;;;10.80;99.90;;;;;;6282674;22;20202;-83
2023/12/25 11:51:29;;;;;;;0.50;0.50;;;10.90;99.90;;;;;;6283480;22;20233;-81
2023/12/25 11:53:59;;;;;;;0.40;0.40;;;11.10;99.90;;;;;;6230569;22;20241;-81
2023/12/25 11:56:32;;;;;;;0.40;0.40;;;11.10;99.90;;;;;;6283092;22;20193;-83
2023/12/25 11:58:59;;;;;;;0.40;0.40;;;11.10;99.90;;;;;;6284453;22;20551;-81
2023/12/25 12:01:27;;;;;;;0.52;0.52;;;11.10;99.90;;;;;;6284218;22;20263;-80
2023/12/25 12:03:57;;;;;;;0.40;0.40;;;11.10;99.90;;;;;;6269326;22;20163;-84
2023/12/25 12:06:25;;;;;;;1.15;1.15;;;11.10;99.90;;;;;;6244704;22;20206;-82
2023/12/25 12:08:52;;;;;;;0.40;0.40;;;11.20;99.90;;;;;;6297188;22;20178;-83
2023/12/25 12:11:20;;;;;;;0.40;0.40;;;11.20;99.90;;;;;;6298851;22;20246;-85
2023/12/25 12:13:56;;;;;;;0.50;0.50;;;11.20;99.90;;;;;;6294404;22;20340;-82
2023/12/25 12:16:24;;;;;;;0.93;0.90;;;11.10;99.90;;;;;;6295921;22;20213;-81
2023/12/25 12:18:51;;;;;;;0.40;0.40;;;11.10;99.90;;;;;;6295266;22;20234;-81
2023/12/25 12:21:18;;;;;;;0.40;0.40;;;11.20;99.90;;;;;;6294428;22;20175;-83
2023/12/25 12:23:46;;;;;;;0.40;0.40;;;11.20;99.90;;;;;;6264969;22;20179;-81
2023/12/25 12:26:17;;;;;;;0.40;0.40;;;11.30;99.90;;;;;;6256848;22;20198;-84
2023/12/25 12:28:45;;;;;;;1.25;1.25;;;11.30;99.90;;;;;;6255420;22;20220;-80
2023/12/25 12:31:13;;;;;;;0.45;0.45;;;11.20;99.90;;;;;;6283248;22;20172;-81
2023/12/25 12:33:42;;;;;;;0.40;0.40;;;11.20;99.90;;;;;;6272731;22;20163;-82
2023/12/25 12:36:10;;;;;;;0.40;0.40;;;11.10;99.90;;;;;;6271344;22;20175;-84
2023/12/25 12:38:43;;;;;;;0.40;0.40;;;11.20;99.90;;;;;;6292410;22;20349;-84
2023/12/25 12:41:12;;;;;;;0.40;0.40;;;11.30;99.90;;;;;;6264398;22;20188;-81
2023/12/25 12:43:41;;;;;;;1.55;1.42;;;11.30;99.90;;;;;;6285589;22;20234;-81
2023/12/25 12:46:26;;;;;;;0.40;0.40;;;11.30;99.90;;;;;;6291679;22;20194;-83
2023/12/25 12:48:53;;;;;;;0.40;0.40;;;11.20;99.90;;;;;;6298149;22;20185;-83
2023/12/25 12:51:23;;;;;;;0.40;0.40;;;11.20;99.90;;;;;;6290870;22;20214;-82
2023/12/25 12:53:51;;;;;;;0.40;0.40;;;11.20;99.90;;;;;;6289913;22;20164;-84